Time;durP1;ratioP1;P1;durP2;ratioP2;P2;SDS_P1;SDS_P2;PMS_P1;PMS_P2;Temp;Humidity;BMP_temperature;BMP_pressure;BME280_temperature;BME280_humidity;BME280_pressure;Samples;Min_cycle;Max_cycle;Signal;HPM_P1;HPM_P2
2023/05/28 00:00:00;;;;;;;1.70;1.60;;;;;;;16.89;58.69;95554.38;4362338;32;20189;-65
2023/05/28 00:02:26;;;;;;;0.90;0.90;;;;;;;16.82;61.76;95549.56;4352934;32;20189;-65
2023/05/28 00:04:51;;;;;;;1.30;1.27;;;;;;;16.74;60.68;95552.28;4346564;32;20224;-65
2023/05/28 00:07:16;;;;;;;1.20;1.10;;;;;;;16.76;59.96;95542.03;4360439;32;20192;-65
2023/05/28 00:09:42;;;;;;;5.07;1.80;;;;;;;16.64;61.89;95544.63;4355826;32;20212;-65
2023/05/28 00:12:08;;;;;;;1.33;1.30;;;;;;;16.53;60.65;95543.44;4362279;32;20232;-65
2023/05/28 00:14:34;;;;;;;1.53;1.17;;;;;;;16.67;61.09;95542.09;4349985;32;20276;-65
2023/05/28 00:16:59;;;;;;;1.40;1.30;;;;;;;16.71;62.77;95536.88;4359941;32;20208;-64
2023/05/28 00:19:24;;;;;;;4.40;1.13;;;;;;;16.79;61.61;95530.66;4363216;32;20184;-65
2023/05/28 00:21:50;;;;;;;1.30;1.20;;;;;;;16.55;60.33;95533.16;4351925;32;20238;-65
2023/05/28 00:24:15;;;;;;;2.33;2.10;;;;;;;16.61;62.47;95534.56;4364228;32;20248;-65
2023/05/28 00:26:40;;;;;;;1.47;1.37;;;;;;;16.56;62.70;95527.50;4361142;32;20185;-65
2023/05/28 00:29:06;;;;;;;1.57;1.47;;;;;;;16.40;60.09;95532.66;4372450;32;20307;-65
2023/05/28 00:31:31;;;;;;;1.47;1.37;;;;;;;16.58;63.85;95527.94;4350743;32;20189;-65
2023/05/28 00:33:56;;;;;;;1.37;1.27;;;;;;;16.71;59.70;95529.63;4348834;32;20217;-65
2023/05/28 00:36:22;;;;;;;1.53;1.40;;;;;;;16.58;62.03;95527.94;4367627;32;20193;-65
2023/05/28 00:38:48;;;;;;;1.70;1.60;;;;;;;16.49;61.65;95530.69;4353179;32;20202;-65
2023/05/28 00:41:17;;;;;;;1.33;1.33;;;;;;;16.32;59.36;95525.44;4352153;32;20220;-65
2023/05/28 00:43:43;;;;;;;0.90;0.90;;;;;;;16.25;60.23;95527.03;4350313;32;20323;-65
2023/05/28 00:46:10;;;;;;;1.63;1.53;;;;;;;16.30;61.09;95526.87;4360103;32;20193;-65
2023/05/28 00:48:36;;;;;;;0.80;0.80;;;;;;;16.28;61.63;95521.84;4354967;32;20194;-65
2023/05/28 00:51:02;;;;;;;3.40;1.83;;;;;;;16.31;60.39;95523.88;4356637;32;20189;-64
2023/05/28 00:53:27;;;;;;;1.17;1.17;;;;;;;16.13;60.96;95528.53;4374164;32;20231;-65
2023/05/28 00:55:53;;;;;;;14.07;1.43;;;;;;;16.36;63.93;95525.56;4347414;32;20201;-65
2023/05/28 00:58:19;;;;;;;1.23;1.07;;;;;;;16.26;61.25;95521.38;4353421;32;20196;-65
2023/05/28 01:00:45;;;;;;;1.30;1.30;;;;;;;16.23;61.63;95527.37;4366864;32;20207;-64
2023/05/28 01:03:14;;;;;;;0.60;0.60;;;;;;;16.29;64.74;95523.41;4359359;32;20201;-65
2023/05/28 01:05:39;;;;;;;6.80;1.93;;;;;;;15.99;61.40;95532.56;4361555;32;20244;-65
2023/05/28 01:08:07;;;;;;;1.23;1.23;;;;;;;16.17;65.99;95527.91;4349161;32;20200;-64
2023/05/28 01:10:33;;;;;;;0.80;0.80;;;;;;;16.13;61.86;95527.75;4336824;32;20212;-64
2023/05/28 01:13:01;;;;;;;1.97;1.80;;;;;;;16.26;64.76;95524.03;4365357;32;20193;-65
2023/05/28 01:15:26;;;;;;;0.80;0.80;;;;;;;16.22;64.58;95520.44;4340753;32;20240;-65
2023/05/28 01:18:00;;;;;;;1.53;1.50;;;;;;;16.26;62.43;95528.63;4352327;32;20201;-64
2023/05/28 01:20:28;;;;;;;1.03;1.03;;;;;;;16.25;62.34;95519.00;4357514;32;20234;-64
2023/05/28 01:23:03;;;;;;;3.07;1.57;;;;;;;16.36;63.34;95523.69;4341068;32;20199;-64
2023/05/28 01:25:30;;;;;;;1.70;1.43;;;;;;;16.23;64.21;95516.66;4349661;32;20228;-65
2023/05/28 01:27:56;;;;;;;1.13;1.13;;;;;;;16.15;61.59;95520.19;4343990;32;20241;-65
2023/05/28 01:30:21;;;;;;;1.70;1.60;;;;;;;15.94;65.07;95522.03;4345776;32;20193;-65
2023/05/28 01:32:47;;;;;;;1.70;1.60;;;;;;;16.05;65.41;95515.97;4342938;32;20200;-65
2023/05/28 01:35:12;;;;;;;1.90;1.80;;;;;;;16.10;64.93;95512.34;4338380;32;20230;-65
2023/05/28 01:37:41;;;;;;;8.10;2.23;;;;;;;16.14;64.87;95511.37;4353690;32;20217;-65
2023/05/28 01:40:09;;;;;;;2.03;1.73;;;;;;;15.90;62.53;95513.06;4337759;32;20247;-64
2023/05/28 01:42:35;;;;;;;0.87;0.60;;;;;;;15.84;63.82;95511.66;4333122;32;20209;-64
2023/05/28 01:45:03;;;;;;;1.50;1.50;;;;;;;15.90;66.39;95505.03;4361467;32;20226;-64
2023/05/28 01:47:29;;;;;;;1.60;0.97;;;;;;;16.05;67.14;95510.63;4364757;32;20233;-65
2023/05/28 01:49:55;;;;;;;1.77;1.67;;;;;;;15.87;65.06;95505.69;4361674;32;20197;-65
2023/05/28 01:52:20;;;;;;;1.43;1.37;;;;;;;15.91;66.29;95502.03;4344503;32;20237;-65
2023/05/28 01:54:46;;;;;;;1.63;1.13;;;;;;;15.85;65.08;95497.19;4352204;32;20202;-65
2023/05/28 01:57:11;;;;;;;0.87;0.87;;;;;;;16.06;63.30;95500.69;4332892;32;20240;-65
2023/05/28 01:59:37;;;;;;;2.30;1.40;;;;;;;15.69;65.41;95499.62;4369315;32;20201;-65
2023/05/28 02:02:02;;;;;;;1.50;1.40;;;;;;;15.80;67.72;95501.59;4345526;32;20204;-65
2023/05/28 02:04:28;;;;;;;1.43;1.17;;;;;;;15.85;66.71;95511.34;4347570;32;20200;-65
2023/05/28 02:06:53;;;;;;;1.37;1.37;;;;;;;15.84;65.00;95504.44;4358229;32;20260;-65
2023/05/28 02:09:18;;;;;;;1.20;1.17;;;;;;;15.78;65.70;95500.38;4350615;32;21841;-65
2023/05/28 02:11:44;;;;;;;1.03;0.97;;;;;;;15.67;65.25;95505.28;4358147;32;20194;-64
2023/05/28 02:14:14;;;;;;;1.00;1.00;;;;;;;15.55;64.67;95502.47;4350600;32;20324;-65
2023/05/28 02:16:40;;;;;;;1.80;1.70;;;;;;;15.61;65.98;95501.22;4359872;32;20191;-65
2023/05/28 02:19:06;;;;;;;1.57;1.47;;;;;;;15.88;67.04;95491.19;4368045;32;20227;-65
2023/05/28 02:21:31;;;;;;;3.30;1.33;;;;;;;15.93;67.25;95497.16;4343415;32;20189;-64
2023/05/28 02:23:56;;;;;;;2.13;2.03;;;;;;;15.64;64.80;95489.09;4360188;32;20190;-65
2023/05/28 02:26:22;;;;;;;5.07;2.20;;;;;;;15.62;64.46;95486.72;4364130;32;20240;-65
2023/05/28 02:28:47;;;;;;;1.70;1.67;;;;;;;15.91;68.22;95499.38;4351795;32;20182;-65
2023/05/28 02:31:13;;;;;;;1.20;1.20;;;;;;;15.80;66.35;95492.78;4359869;32;20299;-65
2023/05/28 02:33:40;;;;;;;1.10;1.10;;;;;;;15.70;66.48;95488.59;4370965;32;20200;-65
2023/05/28 02:36:06;;;;;;;1.30;1.30;;;;;;;15.72;66.55;95493.62;4365360;32;20173;-65
2023/05/28 02:38:32;;;;;;;1.47;1.43;;;;;;;15.66;67.20;95498.38;4360694;32;20185;-64
2023/05/28 02:40:57;;;;;;;3.17;1.57;;;;;;;15.84;67.34;95499.06;4353575;32;20247;-65
2023/05/28 02:43:22;;;;;;;2.73;1.33;;;;;;;15.75;66.05;95496.47;4360390;32;20180;-65
2023/05/28 02:45:48;;;;;;;1.37;1.27;;;;;;;15.74;67.13;95500.22;4351790;32;20244;-64
2023/05/28 02:48:13;;;;;;;1.67;1.57;;;;;;;15.76;66.11;95502.59;4342089;32;20247;-65
2023/05/28 02:50:39;;;;;;;3.77;2.17;;;;;;;15.51;64.34;95496.19;4355929;32;20200;-65
2023/05/28 02:53:04;;;;;;;1.80;1.57;;;;;;;15.59;66.43;95506.09;4370452;32;20181;-64
2023/05/28 02:55:30;;;;;;;0.87;0.87;;;;;;;15.48;66.39;95502.97;4357754;32;20196;-64
2023/05/28 02:57:55;;;;;;;5.03;1.43;;;;;;;15.50;66.64;95497.31;4369032;32;20188;-65
2023/05/28 03:00:21;;;;;;;1.53;1.43;;;;;;;15.79;67.25;95507.31;4357091;32;20229;-64
2023/05/28 03:02:47;;;;;;;1.93;1.73;;;;;;;15.58;65.16;95507.22;4367945;32;20186;-65
2023/05/28 03:05:12;;;;;;;1.50;1.50;;;;;;;15.72;66.72;95507.78;4365487;32;20256;-65
2023/05/28 03:07:37;;;;;;;1.00;1.00;;;;;;;15.42;64.63;95514.16;4356637;32;20193;-65
2023/05/28 03:10:04;;;;;;;1.47;1.37;;;;;;;15.37;65.53;95515.12;4355710;32;20255;-65
2023/05/28 03:12:29;;;;;;;1.50;1.40;;;;;;;15.47;69.52;95511.31;4359538;32;20235;-65
2023/05/28 03:14:54;;;;;;;1.97;1.87;;;;;;;15.48;65.78;95507.53;4377977;32;20197;-65
2023/05/28 03:17:20;;;;;;;1.03;1.03;;;;;;;15.20;66.83;95517.03;4351526;32;20244;-65
2023/05/28 03:19:45;;;;;;;2.70;1.87;;;;;;;15.30;66.73;95522.03;4352547;32;20201;-65
2023/05/28 03:22:10;;;;;;;1.67;1.57;;;;;;;15.25;65.74;95522.22;4364891;32;20189;-65
2023/05/28 03:24:39;;;;;;;5.03;2.27;;;;;;;15.53;69.02;95519.94;4372231;32;20223;-65
2023/05/28 03:27:05;;;;;;;1.20;1.20;;;;;;;15.54;67.66;95526.87;4358853;32;20275;-65
2023/05/28 03:29:30;;;;;;;1.60;1.50;;;;;;;15.44;66.33;95519.97;4363391;32;20238;-64
2023/05/28 03:31:56;;;;;;;6.90;1.53;;;;;;;15.51;67.51;95511.47;4365568;32;20185;-65
2023/05/28 03:34:21;;;;;;;3.07;2.30;;;;;;;15.59;68.71;95513.38;4349837;32;20188;-65
2023/05/28 03:36:46;;;;;;;1.40;1.40;;;;;;;15.56;68.50;95520.13;4368079;32;20268;-65
2023/05/28 03:39:12;;;;;;;1.83;1.60;;;;;;;15.38;66.40;95515.91;4377528;32;20196;-65
2023/05/28 03:41:38;;;;;;;1.67;1.57;;;;;;;15.34;66.27;95517.63;4359631;32;20246;-65
2023/05/28 03:44:04;;;;;;;0.60;0.60;;;;;;;15.58;68.63;95520.59;4347531;32;20256;-65
2023/05/28 03:46:29;;;;;;;1.27;1.27;;;;;;;15.35;67.73;95527.22;4366818;32;20205;-65
2023/05/28 03:48:55;;;;;;;1.77;1.67;;;;;;;15.43;67.56;95513.03;4371618;32;20215;-65
2023/05/28 03:51:21;;;;;;;0.93;0.93;;;;;;;15.37;66.77;95527.69;4360023;32;20189;-65
2023/05/28 03:53:47;;;;;;;1.90;1.80;;;;;;;15.24;68.52;95523.31;4350264;32;20210;-65
2023/05/28 03:56:13;;;;;;;2.10;1.63;;;;;;;15.06;67.93;95517.22;4368441;32;20205;-65
2023/05/28 03:58:38;;;;;;;2.17;2.03;;;;;;;15.38;69.47;95511.31;4364299;32;20253;-65
2023/05/28 04:01:03;;;;;;;1.00;1.00;;;;;;;15.36;66.65;95510.09;4365763;32;20231;-65
2023/05/28 04:03:29;;;;;;;1.13;1.13;;;;;;;15.17;68.29;95517.69;4363094;32;20204;-65
2023/05/28 04:05:54;;;;;;;2.83;1.80;;;;;;;15.20;69.25;95525.81;4362904;32;20245;-65
2023/05/28 04:08:19;;;;;;;1.07;1.07;;;;;;;15.17;67.90;95515.78;4355737;32;20272;-65
2023/05/28 04:10:45;;;;;;;1.50;1.40;;;;;;;15.10;67.13;95521.59;4355611;32;20205;-65
2023/05/28 04:13:10;;;;;;;1.37;1.27;;;;;;;15.08;65.63;95523.81;4361974;32;20206;-65
2023/05/28 04:15:35;;;;;;;1.70;1.03;;;;;;;15.31;69.28;95521.72;4368228;32;20241;-65
2023/05/28 04:18:01;;;;;;;0.93;0.90;;;;;;;15.44;69.17;95517.28;4362466;32;20197;-65
2023/05/28 04:20:26;;;;;;;2.07;1.87;;;;;;;15.26;67.58;95518.44;4362478;32;20185;-65
2023/05/28 04:22:51;;;;;;;2.00;1.90;;;;;;;15.06;66.68;95523.34;4370952;32;20188;-65
2023/05/28 04:25:20;;;;;;;4.13;1.50;;;;;;;15.35;69.06;95521.88;4355559;32;20256;-65
2023/05/28 04:27:46;;;;;;;2.43;1.90;;;;;;;15.41;69.03;95520.59;4365655;32;20231;-65
2023/05/28 04:30:12;;;;;;;1.33;1.17;;;;;;;15.39;68.01;95520.13;4365075;32;20201;-65
2023/05/28 04:32:40;;;;;;;2.67;1.67;;;;;;;15.37;68.23;95523.12;4367635;32;20197;-65
2023/05/28 04:35:08;;;;;;;2.70;1.80;;;;;;;15.39;67.12;95528.13;4361817;32;20185;-65
2023/05/28 04:37:36;;;;;;;1.73;1.50;;;;;;;15.20;67.79;95523.16;4349590;32;20257;-64
2023/05/28 04:40:06;;;;;;;0.70;0.70;;;;;;;15.35;68.56;95524.56;4362680;32;20225;-65
2023/05/28 04:42:31;;;;;;;2.40;1.90;;;;;;;15.30;70.07;95536.19;4365403;32;20242;-64
2023/05/28 04:44:58;;;;;;;1.30;1.30;;;;;;;15.25;68.54;95533.69;4366864;32;20201;-65
2023/05/28 04:47:23;;;;;;;2.03;1.93;;;;;;;15.26;68.03;95537.16;4364296;32;20194;-65
2023/05/28 04:49:49;;;;;;;1.97;1.47;;;;;;;15.36;67.71;95536.81;4351862;32;20201;-65
2023/05/28 04:52:17;;;;;;;1.20;1.20;;;;;;;15.55;67.59;95537.25;4361400;32;20244;-65
2023/05/28 04:54:44;;;;;;;2.57;1.63;;;;;;;15.66;67.96;95537.69;4361350;32;20190;-65
2023/05/28 04:57:10;;;;;;;5.40;1.63;;;;;;;15.45;65.87;95537.56;4368386;32;20216;-65
2023/05/28 04:59:35;;;;;;;0.90;0.90;;;;;;;15.52;67.76;95537.09;4360230;32;20249;-64
2023/05/28 05:02:00;;;;;;;1.70;1.27;;;;;;;15.60;67.55;95538.97;4357025;32;20204;-65
2023/05/28 05:04:26;;;;;;;2.07;0.97;;;;;;;15.71;67.98;95541.00;4344288;32;20213;-65
2023/05/28 05:06:51;;;;;;;1.43;1.33;;;;;;;15.41;67.91;95540.09;4365934;32;20197;-65
2023/05/28 05:09:16;;;;;;;1.77;1.67;;;;;;;15.47;67.41;95544.19;4361699;32;20227;-65
2023/05/28 05:11:42;;;;;;;2.20;1.30;;;;;;;15.50;68.37;95537.41;4369348;32;20196;-65
2023/05/28 05:14:07;;;;;;;1.17;1.17;;;;;;;15.53;68.18;95536.78;4362008;32;20211;-65
2023/05/28 05:16:32;;;;;;;1.80;1.60;;;;;;;15.50;68.08;95542.75;4356694;32;20208;-65
2023/05/28 05:18:58;;;;;;;2.10;1.27;;;;;;;15.70;68.29;95549.34;4346332;32;20201;-65
2023/05/28 05:21:24;;;;;;;2.17;1.60;;;;;;;15.73;67.22;95546.81;4336722;32;20185;-65
2023/05/28 05:23:49;;;;;;;3.90;1.70;;;;;;;15.47;66.65;95543.38;4354416;32;20290;-65
2023/05/28 05:26:17;;;;;;;1.70;0.97;;;;;;;15.74;67.63;95548.38;4349998;32;20201;-65
2023/05/28 05:28:43;;;;;;;1.63;1.53;;;;;;;15.76;68.39;95546.19;4361186;32;20204;-65
2023/05/28 05:31:11;;;;;;;3.03;1.43;;;;;;;15.81;66.87;95545.19;4339870;32;20212;-65
2023/05/28 05:33:37;;;;;;;4.80;2.07;;;;;;;15.62;68.00;95544.78;4365012;32;20228;-65
2023/05/28 05:36:02;;;;;;;1.30;0.93;;;;;;;15.68;67.38;95543.53;4353999;32;20205;-65
2023/05/28 05:38:30;;;;;;;1.77;1.67;;;;;;;15.86;67.53;95546.91;4369211;32;20192;-65
2023/05/28 05:40:55;;;;;;;0.70;0.70;;;;;;;15.98;66.92;95547.03;4368857;32;20192;-65
2023/05/28 05:43:21;;;;;;;1.63;1.53;;;;;;;16.06;66.51;95548.88;4372399;32;20295;-65
2023/05/28 05:45:46;;;;;;;7.03;2.37;;;;;;;16.01;67.39;95546.38;4363115;32;20193;-65
2023/05/28 05:48:11;;;;;;;7.53;1.70;;;;;;;15.98;65.24;95544.38;4370101;32;20208;-65
2023/05/28 05:50:49;;;;;;;1.10;1.10;;;;;;;15.82;65.98;95539.53;4361166;32;20203;-66
2023/05/28 05:53:14;;;;;;;1.67;1.57;;;;;;;16.05;67.43;95541.94;4338991;32;20259;-65
2023/05/28 05:55:39;;;;;;;4.43;1.43;;;;;;;15.84;66.36;95541.87;4363310;32;20228;-65
2023/05/28 05:58:05;;;;;;;1.47;1.37;;;;;;;15.89;65.50;95546.28;4365498;32;20201;-65
2023/05/28 06:00:31;;;;;;;1.57;1.47;;;;;;;16.11;66.25;95548.69;4363815;32;20188;-64
2023/05/28 06:02:56;;;;;;;1.30;1.30;;;;;;;16.17;65.47;95544.75;4361479;32;20185;-65
2023/05/28 06:05:21;;;;;;;1.33;1.23;;;;;;;16.21;65.44;95539.53;4358357;32;20189;-65
2023/05/28 06:07:46;;;;;;;1.43;1.27;;;;;;;16.24;64.81;95531.62;4367164;32;20250;-64
2023/05/28 06:10:12;;;;;;;9.50;1.60;;;;;;;16.33;66.80;95536.94;4372711;32;20192;-65
2023/05/28 06:12:38;;;;;;;8.10;2.00;;;;;;;16.39;64.53;95538.31;4366151;32;20197;-65
2023/05/28 06:15:04;;;;;;;1.33;1.20;;;;;;;16.47;65.74;95535.56;4356866;32;20300;-65
2023/05/28 06:17:29;;;;;;;1.63;1.27;;;;;;;16.43;65.42;95534.66;4368468;32;20189;-65
2023/05/28 06:19:54;;;;;;;18.23;1.67;;;;;;;16.42;65.38;95535.75;4362736;32;20236;-65
2023/05/28 06:22:20;;;;;;;6.40;1.83;;;;;;;16.41;65.94;95539.56;4355189;32;20285;-65
2023/05/28 06:24:46;;;;;;;1.40;1.40;;;;;;;16.46;65.83;95542.03;4367513;32;20216;-65
2023/05/28 06:27:12;;;;;;;2.57;1.50;;;;;;;16.56;65.60;95545.47;4357032;32;20246;-65
2023/05/28 06:29:37;;;;;;;1.30;1.10;;;;;;;16.69;64.37;95541.75;4368596;32;20184;-65
2023/05/28 06:32:03;;;;;;;1.00;1.00;;;;;;;16.96;64.98;95543.94;4348138;32;20213;-65
2023/05/28 06:34:29;;;;;;;1.63;1.53;;;;;;;16.98;64.95;95540.91;4363875;32;20197;-65
2023/05/28 06:36:54;;;;;;;1.17;1.10;;;;;;;17.11;64.42;95546.00;4338534;32;20182;-65
2023/05/28 06:39:20;;;;;;;1.47;1.37;;;;;;;17.29;63.14;95541.25;4367457;32;20318;-65
2023/05/28 06:41:45;;;;;;;1.37;1.27;;;;;;;17.25;64.32;95544.94;4356026;32;20208;-65
2023/05/28 06:44:10;;;;;;;1.17;1.17;;;;;;;17.28;63.01;95549.63;4363153;32;20251;-65
2023/05/28 06:46:36;;;;;;;1.83;1.47;;;;;;;17.35;63.28;95541.84;4356360;32;20240;-65
2023/05/28 06:49:01;;;;;;;1.80;1.70;;;;;;;17.17;61.31;95550.06;4365060;32;20220;-64
2023/05/28 06:51:27;;;;;;;8.37;2.17;;;;;;;17.34;60.98;95553.69;4359279;32;20212;-65
2023/05/28 06:53:52;;;;;;;3.20;1.20;;;;;;;17.38;61.94;95547.34;4370490;32;20223;-65
2023/05/28 06:56:17;;;;;;;1.27;1.27;;;;;;;17.55;59.88;95554.41;4364669;32;20225;-65
2023/05/28 06:58:42;;;;;;;1.43;1.27;;;;;;;17.46;61.57;95545.66;4375027;32;20228;-65
2023/05/28 07:01:08;;;;;;;1.30;1.30;;;;;;;17.51;59.32;95551.59;4367154;32;20234;-65
2023/05/28 07:03:35;;;;;;;1.33;1.33;;;;;;;17.29;60.51;95551.97;4371755;32;20232;-64
2023/05/28 07:06:00;;;;;;;1.30;1.20;;;;;;;17.28;58.04;95552.31;4358450;32;20218;-63
2023/05/28 07:08:26;;;;;;;1.23;1.13;;;;;;;17.42;60.20;95556.28;4367979;32;20193;-65
2023/05/28 07:10:51;;;;;;;2.77;1.90;;;;;;;17.59;59.33;95551.84;4351268;32;20242;-65
2023/05/28 07:13:17;;;;;;;0.90;0.90;;;;;;;17.70;60.62;95551.13;4365012;32;20211;-65
2023/05/28 07:15:42;;;;;;;3.80;1.37;;;;;;;17.59;57.73;95541.91;4367072;32;20189;-64
2023/05/28 07:18:08;;;;;;;2.23;1.23;;;;;;;17.67;60.76;95551.78;4347572;32;20207;-64
2023/05/28 07:20:33;;;;;;;4.20;1.77;;;;;;;17.84;62.50;95543.56;4366333;32;20193;-64
2023/05/28 07:22:58;;;;;;;1.60;1.50;;;;;;;17.79;59.83;95543.78;4368583;32;20208;-64
2023/05/28 07:25:23;;;;;;;0.97;0.97;;;;;;;17.75;59.03;95553.59;4355774;32;20235;-64
2023/05/28 07:27:49;;;;;;;3.80;1.30;;;;;;;17.83;58.05;95543.88;4359108;32;20196;-65
2023/05/28 07:30:16;;;;;;;4.63;1.90;;;;;;;17.96;60.60;95536.63;4353202;32;20233;-64
2023/05/28 07:32:41;;;;;;;1.63;1.53;;;;;;;17.98;60.60;95539.75;4350823;32;20205;-65
2023/05/28 07:35:07;;;;;;;1.70;1.53;;;;;;;17.92;58.21;95538.41;4352403;32;20208;-64
2023/05/28 07:37:33;;;;;;;3.27;2.07;;;;;;;17.93;56.16;95537.28;4358670;32;20200;-64
2023/05/28 07:39:58;;;;;;;1.57;1.13;;;;;;;17.77;56.74;95540.63;4358173;32;20197;-64
2023/05/28 07:42:23;;;;;;;1.10;1.10;;;;;;;17.84;56.52;95540.88;4369287;32;20311;-64
2023/05/28 07:44:49;;;;;;;2.03;1.70;;;;;;;17.81;56.61;95544.22;4359392;32;20201;-64
2023/05/28 07:47:15;;;;;;;1.60;1.60;;;;;;;17.91;56.25;95534.16;4359901;32;20252;-65
2023/05/28 07:49:41;;;;;;;3.03;1.17;;;;;;;17.97;56.62;95538.19;4364066;32;20197;-65
2023/05/28 07:52:06;;;;;;;1.00;1.00;;;;;;;17.96;57.14;95537.41;4371013;32;20246;-64
2023/05/28 07:54:33;;;;;;;0.93;0.93;;;;;;;18.03;55.88;95547.59;4349294;32;20201;-64
2023/05/28 07:57:00;;;;;;;1.40;1.30;;;;;;;18.08;57.47;95536.66;4360357;32;20193;-65
2023/05/28 07:59:26;;;;;;;1.90;1.07;;;;;;;18.04;56.52;95541.13;4353863;32;20302;-65
2023/05/28 08:01:51;;;;;;;1.73;1.63;;;;;;;18.03;56.91;95531.50;4356596;32;20212;-64
2023/05/28 08:04:17;;;;;;;2.67;1.30;;;;;;;18.05;54.78;95529.25;4357505;32;20236;-64
2023/05/28 08:06:43;;;;;;;4.30;1.77;;;;;;;18.08;55.71;95533.97;4358678;32;20200;-64
2023/05/28 08:09:08;;;;;;;1.53;1.53;;;;;;;18.22;56.28;95525.56;4340955;32;20217;-64
2023/05/28 08:11:33;;;;;;;23.53;2.03;;;;;;;18.36;53.95;95524.09;4368107;32;20193;-65
2023/05/28 08:13:59;;;;;;;1.50;1.40;;;;;;;18.28;54.81;95533.06;4365149;32;20258;-65
2023/05/28 08:16:24;;;;;;;4.27;1.87;;;;;;;18.29;53.83;95534.59;4367739;32;20212;-64
2023/05/28 08:18:50;;;;;;;2.13;2.00;;;;;;;18.38;52.84;95521.84;4354641;32;20273;-65
2023/05/28 08:21:15;;;;;;;6.00;2.27;;;;;;;18.37;51.45;95528.34;4362849;32;20253;-65
2023/05/28 08:23:41;;;;;;;1.17;1.17;;;;;;;18.37;51.37;95527.56;4339728;32;20212;-65
2023/05/28 08:26:06;;;;;;;0.73;0.73;;;;;;;18.32;51.67;95523.19;4359942;32;20261;-65
2023/05/28 08:28:31;;;;;;;1.03;1.03;;;;;;;18.33;52.94;95519.37;4351646;32;20193;-64
2023/05/28 08:30:57;;;;;;;1.60;1.27;;;;;;;18.32;52.16;95519.72;4357392;32;20227;-64
2023/05/28 08:33:23;;;;;;;1.47;1.37;;;;;;;18.48;50.76;95529.47;4363219;32;20260;-65
2023/05/28 08:35:49;;;;;;;1.20;1.20;;;;;;;18.28;51.63;95522.31;4323097;32;20201;-65
2023/05/28 08:38:14;;;;;;;1.60;1.13;;;;;;;18.40;51.53;95519.59;4344588;32;20319;-65
2023/05/28 08:40:42;;;;;;;0.93;0.93;;;;;;;18.52;49.83;95514.19;4356565;32;20458;-65
2023/05/28 08:43:08;;;;;;;1.23;1.13;;;;;;;18.64;49.12;95515.34;4368984;32;20196;-65
2023/05/28 08:45:35;;;;;;;0.53;0.43;;;;;;;18.66;49.04;95515.78;4347920;32;20196;-65
2023/05/28 08:48:01;;;;;;;1.10;1.10;;;;;;;18.77;48.92;95517.66;4362210;32;20288;-63
2023/05/28 08:50:29;;;;;;;1.23;1.13;;;;;;;18.71;49.99;95510.94;4364384;32;20200;-65
2023/05/28 08:52:57;;;;;;;5.57;1.83;;;;;;;18.88;49.58;95507.22;4337496;32;20216;-64
2023/05/28 08:55:23;;;;;;;1.10;1.00;;;;;;;18.88;49.99;95509.91;4351777;32;20201;-64
2023/05/28 08:57:48;;;;;;;0.60;0.60;;;;;;;18.96;48.04;95506.28;4348335;32;20211;-64
2023/05/28 09:00:15;;;;;;;1.43;1.33;;;;;;;18.85;47.59;95497.94;4366876;32;20193;-64
2023/05/28 09:02:40;;;;;;;4.10;1.50;;;;;;;19.15;46.61;95503.72;4364082;32;20193;-64
2023/05/28 09:05:06;;;;;;;1.47;1.13;;;;;;;19.19;44.93;95503.84;4345002;32;20241;-65
2023/05/28 09:07:32;;;;;;;3.50;1.23;;;;;;;19.27;44.28;95499.44;4348781;32;20207;-64
2023/05/28 09:09:58;;;;;;;1.00;1.00;;;;;;;19.32;44.42;95507.25;4358852;32;20193;-65
2023/05/28 09:12:24;;;;;;;0.70;0.70;;;;;;;19.33;43.12;95506.13;4357077;32;20207;-64
2023/05/28 09:14:53;;;;;;;1.63;1.20;;;;;;;19.41;43.31;95514.03;4351317;32;20241;-65
2023/05/28 09:17:38;;;;;;;1.00;1.00;;;;;;;19.21;43.11;95513.13;4345439;32;20215;-64
2023/05/28 09:20:14;;;;;;;0.93;0.93;;;;;;;19.13;41.90;95508.66;4351082;32;20212;-65
2023/05/28 09:22:40;;;;;;;1.47;1.37;;;;;;;19.20;41.34;95503.50;4344988;32;20204;-64
2023/05/28 09:25:07;;;;;;;0.60;0.60;;;;;;;19.33;40.36;95500.75;4348645;32;20232;-64
2023/05/28 09:27:33;;;;;;;1.03;0.93;;;;;;;19.38;40.41;95498.56;4364411;32;20246;-64
2023/05/28 09:30:07;;;;;;;7.07;1.60;;;;;;;19.41;41.75;95500.59;4358389;32;20181;-64
2023/05/28 09:32:34;;;;;;;1.23;1.03;;;;;;;19.54;40.26;95495.94;4340410;32;20189;-64
2023/05/28 09:35:00;;;;;;;1.40;1.30;;;;;;;19.49;39.83;95494.25;4360078;32;20256;-65
2023/05/28 09:37:28;;;;;;;1.67;1.13;;;;;;;19.52;40.74;95490.13;4357866;32;20201;-65
2023/05/28 09:40:04;;;;;;;0.53;0.53;;;;;;;19.65;41.45;95499.69;4363120;32;20199;-65
2023/05/28 09:42:49;;;;;;;0.87;0.87;;;;;;;19.64;42.39;95502.72;4362556;32;20189;-65
2023/05/28 09:45:22;;;;;;;1.13;1.13;;;;;;;19.70;42.25;95483.28;4357575;32;20239;-64
2023/05/28 09:47:48;;;;;;;1.80;1.07;;;;;;;19.89;42.34;95491.44;4370570;32;20218;-65
2023/05/28 09:50:13;;;;;;;0.70;0.70;;;;;;;19.94;40.97;95487.72;4365356;32;20212;-64
2023/05/28 09:52:42;;;;;;;1.93;1.83;;;;;;;19.98;40.68;95487.78;4362918;32;20201;-65
2023/05/28 09:55:12;;;;;;;1.40;1.30;;;;;;;20.04;40.66;95484.47;4356094;32;20191;-64
2023/05/28 09:57:44;;;;;;;1.83;1.27;;;;;;;20.09;40.69;95489.59;4354898;32;20244;-65
2023/05/28 10:00:19;;;;;;;3.17;1.13;;;;;;;19.99;41.17;95494.72;4360227;32;20253;-65
2023/05/28 10:02:55;;;;;;;2.03;1.93;;;;;;;20.10;41.74;95475.00;4356244;32;20196;-64
2023/05/28 10:05:25;;;;;;;0.60;0.60;;;;;;;20.17;41.56;95479.75;4346341;32;20334;-65
2023/05/28 10:07:53;;;;;;;1.67;1.30;;;;;;;20.14;40.87;95491.25;4360325;32;21600;-65
2023/05/28 10:10:20;;;;;;;1.00;1.00;;;;;;;20.18;40.80;95478.63;4345885;32;20204;-65
2023/05/28 10:12:46;;;;;;;1.00;1.00;;;;;;;20.14;40.28;95485.88;4365511;32;20270;-65
2023/05/28 10:15:13;;;;;;;2.03;1.13;;;;;;;20.14;40.95;95485.88;4356512;32;20192;-64
2023/05/28 10:17:39;;;;;;;0.80;0.80;;;;;;;20.14;41.26;95486.66;4352496;32;20217;-65
2023/05/28 10:20:05;;;;;;;1.23;1.23;;;;;;;20.23;40.40;95487.22;4356722;32;20197;-64
2023/05/28 10:22:31;;;;;;;1.17;1.17;;;;;;;20.42;40.37;95485.75;4350753;32;20256;-64
2023/05/28 10:25:00;;;;;;;2.30;1.20;;;;;;;20.54;39.77;95483.72;4346139;32;20251;-65
2023/05/28 10:27:31;;;;;;;1.20;1.10;;;;;;;20.54;37.94;95488.31;4347175;32;20217;-64
2023/05/28 10:29:56;;;;;;;0.77;0.77;;;;;;;20.58;35.86;95478.38;4353023;32;20206;-65
2023/05/28 10:32:21;;;;;;;0.83;0.83;;;;;;;20.54;38.03;95483.72;4364792;32;20189;-65
2023/05/28 10:34:47;;;;;;;5.47;1.77;;;;;;;20.36;39.50;95479.03;4354266;32;20245;-65
2023/05/28 10:37:13;;;;;;;1.30;1.27;;;;;;;20.38;39.74;95479.47;4337893;32;20211;-65
2023/05/28 10:39:43;;;;;;;11.27;10.00;;;;;;;20.56;39.25;95478.75;4364667;32;20225;-65
2023/05/28 10:42:10;;;;;;;0.60;0.60;;;;;;;20.67;39.22;95486.28;4363410;32;20185;-64
2023/05/28 10:45:03;;;;;;;1.53;1.43;;;;;;;20.63;40.85;95477.31;4357298;32;20286;-65
2023/05/28 10:47:32;;;;;;;2.27;2.17;;;;;;;20.54;42.02;95466.75;4353095;32;20235;-65
2023/05/28 10:50:08;;;;;;;2.33;2.23;;;;;;;20.49;41.33;95465.13;4358957;32;20246;-64
2023/05/28 10:52:33;;;;;;;5.23;4.73;;;;;;;20.48;41.71;95468.94;4371430;32;20192;-65
2023/05/28 10:55:03;;;;;;;1.17;1.17;;;;;;;20.56;41.75;95470.66;4371404;32;20197;-65
2023/05/28 10:57:48;;;;;;;1.97;1.87;;;;;;;20.44;41.77;95464.59;4369662;32;20251;-64
2023/05/28 11:00:23;;;;;;;3.43;3.03;;;;;;;20.49;41.04;95464.34;4360996;32;20231;-65
2023/05/28 11:02:52;;;;;;;1.50;1.50;;;;;;;20.47;41.86;95464.69;4368588;32;20208;-65
2023/05/28 11:05:23;;;;;;;2.07;1.37;;;;;;;20.47;41.09;95459.28;4361805;32;20219;-65
2023/05/28 11:07:48;;;;;;;2.80;2.10;;;;;;;20.42;41.41;95464.19;4347676;32;20193;-67
2023/05/28 11:10:15;;;;;;;8.23;7.47;;;;;;;20.42;40.92;95453.41;4367241;32;20204;-65
2023/05/28 11:12:42;;;;;;;0.93;0.93;;;;;;;20.44;40.91;95462.69;4362163;32;20201;-65
2023/05/28 11:15:09;;;;;;;1.50;1.40;;;;;;;20.43;41.17;95455.75;4364980;32;20223;-65
2023/05/28 11:17:39;;;;;;;0.83;0.83;;;;;;;20.53;40.34;95462.50;4357548;32;20189;-65
2023/05/28 11:20:05;;;;;;;1.23;1.13;;;;;;;20.60;40.00;95459.94;4359473;32;20201;-66
2023/05/28 11:22:38;;;;;;;1.80;1.30;;;;;;;20.63;39.36;95461.16;4372360;32;20215;-64
2023/05/28 11:25:04;;;;;;;2.13;1.97;;;;;;;20.61;38.77;95466.09;4362904;32;20204;-65
2023/05/28 11:27:31;;;;;;;1.37;1.37;;;;;;;20.66;38.49;95457.75;4351905;32;20215;-65
2023/05/28 11:29:59;;;;;;;1.80;1.20;;;;;;;20.55;38.07;95463.72;4358579;32;20211;-65